sensor_id;sensor_type;location;lat;lon;timestamp;pressure;altitude;pressure_sealevel;temperature;humidity
29383;BME280;16365;51.598;7.668;2023-04-21T00:00:50;100779.19;;;15.75;42.61
29383;BME280;16365;51.598;7.668;2023-04-21T00:03:18;100790.38;;;15.75;43.09
29383;BME280;16365;51.598;7.668;2023-04-21T00:05:45;100790.84;;;15.77;42.94
29383;BME280;16365;51.598;7.668;2023-04-21T00:08:12;100792.81;;;15.77;43.05
29383;BME280;16365;51.598;7.668;2023-04-21T00:10:39;100794.06;;;15.79;43.05
29383;BME280;16365;51.598;7.668;2023-04-21T00:13:05;100794.53;;;15.81;43.08
29383;BME280;16365;51.598;7.668;2023-04-21T00:15:32;100791.38;;;15.83;43.11
29383;BME280;16365;51.598;7.668;2023-04-21T00:17:58;100792.63;;;15.85;43.20
29383;BME280;16365;51.598;7.668;2023-04-21T00:20:26;100796.69;;;15.88;43.06
29383;BME280;16365;51.598;7.668;2023-04-21T00:22:54;100796.78;;;15.91;43.19
29383;BME280;16365;51.598;7.668;2023-04-21T00:25:21;100798.03;;;15.94;43.54
29383;BME280;16365;51.598;7.668;2023-04-21T00:27:48;100795.69;;;15.96;43.32
29383;BME280;16365;51.598;7.668;2023-04-21T00:30:15;100791.34;;;15.99;43.42
29383;BME280;16365;51.598;7.668;2023-04-21T00:32:41;100789.44;;;16.03;43.56
29383;BME280;16365;51.598;7.668;2023-04-21T00:35:09;100783.94;;;16.06;43.73
29383;BME280;16365;51.598;7.668;2023-04-21T00:37:35;100776.81;;;16.09;43.43
29383;BME280;16365;51.598;7.668;2023-04-21T00:40:02;100778.06;;;16.11;43.39
29383;BME280;16365;51.598;7.668;2023-04-21T00:42:29;100774.53;;;16.14;43.22
29383;BME280;16365;51.598;7.668;2023-04-21T00:44:56;100774.63;;;16.18;43.26
29383;BME280;16365;51.598;7.668;2023-04-21T00:47:23;100780.69;;;16.20;43.43
29383;BME280;16365;51.598;7.668;2023-04-21T00:49:49;100779.94;;;16.23;43.37
29383;BME280;16365;51.598;7.668;2023-04-21T00:52:17;100777.59;;;16.25;43.50
29383;BME280;16365;51.598;7.668;2023-04-21T00:54:44;100776.41;;;16.26;43.16
29383;BME280;16365;51.598;7.668;2023-04-21T00:57:10;100773.72;;;16.30;43.11
29383;BME280;16365;51.598;7.668;2023-04-21T00:59:37;100771.72;;;16.30;43.26
29383;BME280;16365;51.598;7.668;2023-04-21T01:02:03;100773.34;;;16.31;43.15
29383;BME280;16365;51.598;7.668;2023-04-21T01:04:33;100762.56;;;16.33;43.30
29383;BME280;16365;51.598;7.668;2023-04-21T01:07:05;100772.63;;;16.34;43.40
29383;BME280;16365;51.598;7.668;2023-04-21T01:09:33;100769.44;;;16.36;43.40
29383;BME280;16365;51.598;7.668;2023-04-21T01:12:10;100767.00;;;16.34;43.89
29383;BME280;16365;51.598;7.668;2023-04-21T01:14:38;100766.25;;;16.37;43.54
29383;BME280;16365;51.598;7.668;2023-04-21T01:17:05;100766.25;;;16.37;43.39
29383;BME280;16365;51.598;7.668;2023-04-21T01:19:37;100766.72;;;16.39;43.54
29383;BME280;16365;51.598;7.668;2023-04-21T01:22:08;100773.19;;;16.43;43.04
29383;BME280;16365;51.598;7.668;2023-04-21T01:24:43;100774.75;;;16.41;43.64
29383;BME280;16365;51.598;7.668;2023-04-21T01:27:18;100773.94;;;16.40;43.47
29383;BME280;16365;51.598;7.668;2023-04-21T01:29:48;100773.47;;;16.38;43.46
29383;BME280;16365;51.598;7.668;2023-04-21T01:32:17;100769.53;;;16.39;43.47
29383;BME280;16365;51.598;7.668;2023-04-21T01:34:44;100767.88;;;16.38;43.47
29383;BME280;16365;51.598;7.668;2023-04-21T01:37:14;100769.88;;;16.38;43.62
29383;BME280;16365;51.598;7.668;2023-04-21T01:39:43;100773.47;;;16.38;43.66
29383;BME280;16365;51.598;7.668;2023-04-21T01:42:10;100777.91;;;16.39;43.66
29383;BME280;16365;51.598;7.668;2023-04-21T01:44:37;100774.28;;;16.39;43.54
29383;BME280;16365;51.598;7.668;2023-04-21T01:47:04;100773.47;;;16.38;43.70
29383;BME280;16365;51.598;7.668;2023-04-21T01:49:31;100772.66;;;16.38;43.94
29383;BME280;16365;51.598;7.668;2023-04-21T01:51:58;100784.31;;;16.40;43.53
29383;BME280;16365;51.598;7.668;2023-04-21T01:54:24;100785.47;;;16.39;43.44
29383;BME280;16365;51.598;7.668;2023-04-21T01:56:51;100789.13;;;16.39;43.48
29383;BME280;16365;51.598;7.668;2023-04-21T01:59:18;100787.94;;;16.40;43.86
29383;BME280;16365;51.598;7.668;2023-04-21T02:01:44;100785.94;;;16.41;43.57
29383;BME280;16365;51.598;7.668;2023-04-21T02:04:11;100778.78;;;16.43;43.57
29383;BME280;16365;51.598;7.668;2023-04-21T02:06:38;100770.38;;;16.43;43.60
29383;BME280;16365;51.598;7.668;2023-04-21T02:09:04;100779.25;;;16.45;43.73
29383;BME280;16365;51.598;7.668;2023-04-21T02:11:31;100781.22;;;16.45;43.48
29383;BME280;16365;51.598;7.668;2023-04-21T02:13:58;100779.25;;;16.45;43.55
29383;BME280;16365;51.598;7.668;2023-04-21T02:16:26;100785.66;;;16.46;43.79
29383;BME280;16365;51.598;7.668;2023-04-21T02:18:54;100782.84;;;16.46;43.41
29383;BME280;16365;51.598;7.668;2023-04-21T02:21:23;100776.88;;;16.48;43.66
29383;BME280;16365;51.598;7.668;2023-04-21T02:23:50;100766.50;;;16.48;43.68
29383;BME280;16365;51.598;7.668;2023-04-21T02:26:18;100773.72;;;16.49;43.48
29383;BME280;16365;51.598;7.668;2023-04-21T02:28:45;100774.06;;;16.48;43.52
29383;BME280;16365;51.598;7.668;2023-04-21T02:31:11;100772.47;;;16.47;43.83
29383;BME280;16365;51.598;7.668;2023-04-21T02:33:38;100762.88;;;16.48;43.64
29383;BME280;16365;51.598;7.668;2023-04-21T02:36:05;100764.88;;;16.47;43.79
29383;BME280;16365;51.598;7.668;2023-04-21T02:38:32;100756.84;;;16.45;43.61
29383;BME280;16365;51.598;7.668;2023-04-21T02:40:58;100766.44;;;16.44;43.74
29383;BME280;16365;51.598;7.668;2023-04-21T02:43:25;100759.56;;;16.42;43.83
29383;BME280;16365;51.598;7.668;2023-04-21T02:45:52;100757.50;;;16.39;44.06
29383;BME280;16365;51.598;7.668;2023-04-21T02:48:18;100746.69;;;16.37;43.87
29383;BME280;16365;51.598;7.668;2023-04-21T02:50:51;100741.00;;;16.34;43.69
29383;BME280;16365;51.598;7.668;2023-04-21T02:53:19;100738.56;;;16.32;43.53
29383;BME280;16365;51.598;7.668;2023-04-21T02:55:46;100753.28;;;16.29;43.70
29383;BME280;16365;51.598;7.668;2023-04-21T02:58:13;100739.25;;;16.26;44.00
29383;BME280;16365;51.598;7.668;2023-04-21T03:00:39;100741.94;;;16.22;43.87
29383;BME280;16365;51.598;7.668;2023-04-21T03:03:06;100730.31;;;16.20;43.76
29383;BME280;16365;51.598;7.668;2023-04-21T03:05:33;100715.44;;;16.16;44.28
29383;BME280;16365;51.598;7.668;2023-04-21T03:08:01;100714.56;;;16.12;43.68
29383;BME280;16365;51.598;7.668;2023-04-21T03:10:28;100712.84;;;16.07;44.24
29383;BME280;16365;51.598;7.668;2023-04-21T03:12:54;100725.94;;;16.03;44.27
29383;BME280;16365;51.598;7.668;2023-04-21T03:15:21;100710.72;;;16.01;44.56
29383;BME280;16365;51.598;7.668;2023-04-21T03:17:49;100721.44;;;15.99;44.48
29383;BME280;16365;51.598;7.668;2023-04-21T03:20:17;100716.59;;;15.96;44.37
29383;BME280;16365;51.598;7.668;2023-04-21T03:22:43;100703.75;;;15.94;44.47
29383;BME280;16365;51.598;7.668;2023-04-21T03:25:10;100716.13;;;15.93;44.62
29383;BME280;16365;51.598;7.668;2023-04-21T03:27:38;100700.53;;;15.92;44.42
29383;BME280;16365;51.598;7.668;2023-04-21T03:30:07;100701.72;;;15.91;44.79
29383;BME280;16365;51.598;7.668;2023-04-21T03:32:34;100693.66;;;15.90;44.97
29383;BME280;16365;51.598;7.668;2023-04-21T03:35:00;100704.03;;;15.89;44.90
29383;BME280;16365;51.598;7.668;2023-04-21T03:37:27;100709.63;;;15.89;44.66
29383;BME280;16365;51.598;7.668;2023-04-21T03:39:53;100720.81;;;15.89;45.06
29383;BME280;16365;51.598;7.668;2023-04-21T03:42:20;100739.22;;;15.90;45.29
29383;BME280;16365;51.598;7.668;2023-04-21T03:44:51;100744.47;;;15.92;45.33
29383;BME280;16365;51.598;7.668;2023-04-21T03:47:17;100748.50;;;15.94;45.41
29383;BME280;16365;51.598;7.668;2023-04-21T03:49:43;100748.97;;;15.97;45.38
29383;BME280;16365;51.598;7.668;2023-04-21T03:52:10;100751.38;;;15.98;45.54
29383;BME280;16365;51.598;7.668;2023-04-21T03:54:37;100739.84;;;16.00;45.40
29383;BME280;16365;51.598;7.668;2023-04-21T03:57:04;100751.47;;;16.02;45.26
29383;BME280;16365;51.598;7.668;2023-04-21T03:59:30;100759.50;;;16.03;45.48
29383;BME280;16365;51.598;7.668;2023-04-21T04:01:57;100748.31;;;16.03;45.46
29383;BME280;16365;51.598;7.668;2023-04-21T04:04:23;100754.38;;;16.05;45.31
29383;BME280;16365;51.598;7.668;2023-04-21T04:06:50;100757.16;;;16.05;45.31
29383;BME280;16365;51.598;7.668;2023-04-21T04:09:16;100763.19;;;16.07;45.38
29383;BME280;16365;51.598;7.668;2023-04-21T04:11:43;100755.59;;;16.08;45.57
29383;BME280;16365;51.598;7.668;2023-04-21T04:14:10;100749.63;;;16.09;45.35
29383;BME280;16365;51.598;7.668;2023-04-21T04:16:36;100744.84;;;16.10;45.62
29383;BME280;16365;51.598;7.668;2023-04-21T04:19:03;100740.91;;;16.11;45.67
29383;BME280;16365;51.598;7.668;2023-04-21T04:21:30;100732.53;;;16.11;45.81
29383;BME280;16365;51.598;7.668;2023-04-21T04:23:58;100726.91;;;16.11;45.58
29383;BME280;16365;51.598;7.668;2023-04-21T04:26:25;100717.72;;;16.10;45.87
29383;BME280;16365;51.598;7.668;2023-04-21T04:28:51;100721.31;;;16.11;45.81
29383;BME280;16365;51.598;7.668;2023-04-21T04:31:18;100718.88;;;16.09;45.91
29383;BME280;16365;51.598;7.668;2023-04-21T04:33:45;100725.66;;;16.08;45.91
29383;BME280;16365;51.598;7.668;2023-04-21T04:36:11;100740.44;;;16.09;45.92
29383;BME280;16365;51.598;7.668;2023-04-21T04:38:38;100740.00;;;16.07;45.93
29383;BME280;16365;51.598;7.668;2023-04-21T04:41:05;100749.22;;;16.07;46.26
29383;BME280;16365;51.598;7.668;2023-04-21T04:43:34;100755.97;;;16.06;46.22
29383;BME280;16365;51.598;7.668;2023-04-21T04:46:07;100750.38;;;16.06;46.37
29383;BME280;16365;51.598;7.668;2023-04-21T04:48:38;100748.41;;;16.07;46.58
29383;BME280;16365;51.598;7.668;2023-04-21T04:51:05;100755.19;;;16.06;46.57
29383;BME280;16365;51.598;7.668;2023-04-21T04:53:32;100762.38;;;16.07;46.75
29383;BME280;16365;51.598;7.668;2023-04-21T04:55:58;100763.56;;;16.06;46.54
29383;BME280;16365;51.598;7.668;2023-04-21T04:58:25;100762.38;;;16.07;46.55
29383;BME280;16365;51.598;7.668;2023-04-21T05:00:51;100749.59;;;16.06;46.69
29383;BME280;16365;51.598;7.668;2023-04-21T05:03:18;100753.19;;;16.06;46.77
29383;BME280;16365;51.598;7.668;2023-04-21T05:05:47;100752.00;;;16.07;46.91
29383;BME280;16365;51.598;7.668;2023-04-21T05:08:13;100754.00;;;16.07;46.79
29383;BME280;16365;51.598;7.668;2023-04-21T05:10:43;100761.19;;;16.08;46.79
29383;BME280;16365;51.598;7.668;2023-04-21T05:13:09;100760.41;;;16.07;47.01
29383;BME280;16365;51.598;7.668;2023-04-21T05:15:36;100769.59;;;16.08;47.00
29383;BME280;16365;51.598;7.668;2023-04-21T05:18:02;100761.56;;;16.06;46.88
29383;BME280;16365;51.598;7.668;2023-04-21T05:20:29;100759.59;;;16.07;47.47
29383;BME280;16365;51.598;7.668;2023-04-21T05:22:56;100758.78;;;16.06;47.01
29383;BME280;16365;51.598;7.668;2023-04-21T05:25:22;100763.56;;;16.06;47.01
29383;BME280;16365;51.598;7.668;2023-04-21T05:27:48;100760.78;;;16.06;47.15
29383;BME280;16365;51.598;7.668;2023-04-21T05:30:15;100762.75;;;16.05;47.19
29383;BME280;16365;51.598;7.668;2023-04-21T05:32:43;100771.16;;;16.05;47.27
29383;BME280;16365;51.598;7.668;2023-04-21T05:35:09;100767.50;;;16.05;47.44
29383;BME280;16365;51.598;7.668;2023-04-21T05:37:36;100773.09;;;16.05;47.22
29383;BME280;16365;51.598;7.668;2023-04-21T05:40:03;100768.34;;;16.05;47.48
29383;BME280;16365;51.598;7.668;2023-04-21T05:42:30;100775.56;;;16.06;47.53
29383;BME280;16365;51.598;7.668;2023-04-21T05:44:56;100764.72;;;16.05;47.38
29383;BME280;16365;51.598;7.668;2023-04-21T05:47:23;100766.38;;;16.06;47.82
29383;BME280;16365;51.598;7.668;2023-04-21T05:49:52;100767.16;;;16.06;48.53
29383;BME280;16365;51.598;7.668;2023-04-21T05:52:19;100780.78;;;16.08;47.89
29383;BME280;16365;51.598;7.668;2023-04-21T05:54:47;100769.22;;;16.09;47.91
29383;BME280;16365;51.598;7.668;2023-04-21T05:57:13;100775.63;;;16.10;47.92
29383;BME280;16365;51.598;7.668;2023-04-21T05:59:41;100772.47;;;16.11;47.96
29383;BME280;16365;51.598;7.668;2023-04-21T06:02:09;100780.50;;;16.13;47.77
29383;BME280;16365;51.598;7.668;2023-04-21T06:04:36;100784.09;;;16.13;47.92
29383;BME280;16365;51.598;7.668;2023-04-21T06:07:07;100783.28;;;16.13;47.84
29383;BME280;16365;51.598;7.668;2023-04-21T06:09:35;100778.16;;;16.15;48.12
29383;BME280;16365;51.598;7.668;2023-04-21T06:12:02;100780.59;;;16.16;48.07
29383;BME280;16365;51.598;7.668;2023-04-21T06:14:28;100777.41;;;16.18;48.23
29383;BME280;16365;51.598;7.668;2023-04-21T06:16:55;100771.44;;;16.19;48.08
29383;BME280;16365;51.598;7.668;2023-04-21T06:19:21;100764.69;;;16.21;48.04
29383;BME280;16365;51.598;7.668;2023-04-21T06:21:48;100768.31;;;16.21;48.27
29383;BME280;16365;51.598;7.668;2023-04-21T06:24:14;100755.94;;;16.22;48.01
29383;BME280;16365;51.598;7.668;2023-04-21T06:26:42;100762.81;;;16.25;48.18
29383;BME280;16365;51.598;7.668;2023-04-21T06:29:08;100756.84;;;16.26;48.25
29383;BME280;16365;51.598;7.668;2023-04-21T06:31:35;100764.03;;;16.27;48.22
29383;BME280;16365;51.598;7.668;2023-04-21T06:34:02;100761.69;;;16.29;48.47
29383;BME280;16365;51.598;7.668;2023-04-21T06:36:28;100759.34;;;16.31;48.37
29383;BME280;16365;51.598;7.668;2023-04-21T06:38:56;100754.97;;;16.34;48.69
29383;BME280;16365;51.598;7.668;2023-04-21T06:41:22;100752.66;;;16.36;48.49
29383;BME280;16365;51.598;7.668;2023-04-21T06:43:50;100752.75;;;16.39;48.55
29383;BME280;16365;51.598;7.668;2023-04-21T06:46:16;100754.34;;;16.40;48.29
29383;BME280;16365;51.598;7.668;2023-04-21T06:48:43;100745.19;;;16.43;48.22
29383;BME280;16365;51.598;7.668;2023-04-21T06:51:11;100746.47;;;16.46;48.39
29383;BME280;16365;51.598;7.668;2023-04-21T06:53:39;100741.75;;;16.50;48.31
29383;BME280;16365;51.598;7.668;2023-04-21T06:56:06;100746.97;;;16.52;48.12
29383;BME280;16365;51.598;7.668;2023-04-21T06:58:33;100755.47;;;16.55;48.24
29383;BME280;16365;51.598;7.668;2023-04-21T07:00:59;100753.91;;;16.58;48.68
29383;BME280;16365;51.598;7.668;2023-04-21T07:03:26;100748.38;;;16.61;48.61
29383;BME280;16365;51.598;7.668;2023-04-21T07:05:55;100751.28;;;16.65;48.40
29383;BME280;16365;51.598;7.668;2023-04-21T07:08:21;100756.56;;;16.70;48.42
29383;BME280;16365;51.598;7.668;2023-04-21T07:10:48;100750.63;;;16.72;48.72
29383;BME280;16365;51.598;7.668;2023-04-21T07:13:14;100746.34;;;16.78;48.41
29383;BME280;16365;51.598;7.668;2023-04-21T07:15:43;100742.44;;;16.82;48.27
29383;BME280;16365;51.598;7.668;2023-04-21T07:18:09;100744.50;;;16.85;48.58
29383;BME280;16365;51.598;7.668;2023-04-21T07:20:36;100737.00;;;16.89;48.51
29383;BME280;16365;51.598;7.668;2023-04-21T07:23:03;100738.69;;;16.94;48.28
29383;BME280;16365;51.598;7.668;2023-04-21T07:25:29;100736.75;;;16.98;48.71
29383;BME280;16365;51.598;7.668;2023-04-21T07:27:56;100736.00;;;17.01;48.45
29383;BME280;16365;51.598;7.668;2023-04-21T07:30:22;100726.88;;;17.04;48.54
29383;BME280;16365;51.598;7.668;2023-04-21T07:32:49;100731.75;;;17.07;48.58
29383;BME280;16365;51.598;7.668;2023-04-21T07:35:15;100739.38;;;17.10;48.87
29383;BME280;16365;51.598;7.668;2023-04-21T07:37:42;100733.84;;;17.14;48.71
29383;BME280;16365;51.598;7.668;2023-04-21T07:40:09;100732.72;;;17.18;49.10
29383;BME280;16365;51.598;7.668;2023-04-21T07:42:38;100728.81;;;17.23;48.45
29383;BME280;16365;51.598;7.668;2023-04-21T07:45:05;100738.09;;;17.27;48.55
29383;BME280;16365;51.598;7.668;2023-04-21T07:47:33;100729.38;;;17.32;48.71
29383;BME280;16365;51.598;7.668;2023-04-21T07:49:59;100735.47;;;17.38;48.50
29383;BME280;16365;51.598;7.668;2023-04-21T07:52:26;100738.78;;;17.43;48.19
29383;BME280;16365;51.598;7.668;2023-04-21T07:54:52;100740.47;;;17.48;48.51
29383;BME280;16365;51.598;7.668;2023-04-21T07:57:19;100734.53;;;17.53;47.93
29383;BME280;16365;51.598;7.668;2023-04-21T07:59:45;100733.84;;;17.60;47.92
29383;BME280;16365;51.598;7.668;2023-04-21T08:02:12;100731.91;;;17.64;48.35
29383;BME280;16365;51.598;7.668;2023-04-21T08:04:38;100738.84;;;17.70;48.05
29383;BME280;16365;51.598;7.668;2023-04-21T08:07:06;100735.75;;;17.75;47.42
29383;BME280;16365;51.598;7.668;2023-04-21T08:09:35;100732.63;;;17.80;47.51
29383;BME280;16365;51.598;7.668;2023-04-21T08:12:01;100727.03;;;17.84;47.34
29383;BME280;16365;51.598;7.668;2023-04-21T08:14:28;100719.06;;;17.86;47.14
29383;BME280;16365;51.598;7.668;2023-04-21T08:16:56;100727.56;;;17.89;47.42
29383;BME280;16365;51.598;7.668;2023-04-21T08:19:23;100718.38;;;17.92;47.14
29383;BME280;16365;51.598;7.668;2023-04-21T08:21:49;100731.25;;;17.97;47.14
29383;BME280;16365;51.598;7.668;2023-04-21T08:24:15;100716.03;;;17.98;47.10
29383;BME280;16365;51.598;7.668;2023-04-21T08:26:42;100717.72;;;18.03;46.77
29383;BME280;16365;51.598;7.668;2023-04-21T08:29:09;100720.97;;;18.05;46.68
29383;BME280;16365;51.598;7.668;2023-04-21T08:31:36;100730.25;;;18.09;46.59
29383;BME280;16365;51.598;7.668;2023-04-21T08:34:02;100733.88;;;18.13;46.72
29383;BME280;16365;51.598;7.668;2023-04-21T08:36:29;100733.13;;;18.16;46.59
29383;BME280;16365;51.598;7.668;2023-04-21T08:38:57;100730.38;;;18.19;46.66
29383;BME280;16365;51.598;7.668;2023-04-21T08:41:25;100734.41;;;18.22;46.53
29383;BME280;16365;51.598;7.668;2023-04-21T08:43:53;100733.66;;;18.25;46.42
29383;BME280;16365;51.598;7.668;2023-04-21T08:46:19;100740.97;;;18.30;46.31
29383;BME280;16365;51.598;7.668;2023-04-21T08:48:46;100731.78;;;18.33;46.34
29383;BME280;16365;51.598;7.668;2023-04-21T08:51:26;100737.81;;;18.35;46.77
29383;BME280;16365;51.598;7.668;2023-04-21T08:53:53;100737.09;;;18.41;46.43
29383;BME280;16365;51.598;7.668;2023-04-21T08:56:20;100735.16;;;18.45;46.75
29383;BME280;16365;51.598;7.668;2023-04-21T08:58:47;100734.00;;;18.50;46.55
29383;BME280;16365;51.598;7.668;2023-04-21T09:01:13;100740.47;;;18.54;46.41
29383;BME280;16365;51.598;7.668;2023-04-21T09:03:40;100738.13;;;18.60;46.16
29383;BME280;16365;51.598;7.668;2023-04-21T09:06:09;100741.81;;;18.64;46.17
29383;BME280;16365;51.598;7.668;2023-04-21T09:08:38;100744.66;;;18.67;46.24
29383;BME280;16365;51.598;7.668;2023-04-21T09:11:07;100740.75;;;18.72;46.17
29383;BME280;16365;51.598;7.668;2023-04-21T09:13:35;100737.94;;;18.75;46.17
29383;BME280;16365;51.598;7.668;2023-04-21T09:16:14;100740.00;;;18.79;46.30
29383;BME280;16365;51.598;7.668;2023-04-21T09:18:43;100740.09;;;18.86;46.00
29383;BME280;16365;51.598;7.668;2023-04-21T09:21:14;100732.88;;;18.88;46.15
29383;BME280;16365;51.598;7.668;2023-04-21T09:23:42;100733.34;;;18.94;46.40
29383;BME280;16365;51.598;7.668;2023-04-21T09:26:09;100736.22;;;18.97;46.13
29383;BME280;16365;51.598;7.668;2023-04-21T09:28:40;100735.44;;;19.00;45.82
29383;BME280;16365;51.598;7.668;2023-04-21T09:31:12;100731.44;;;19.02;46.27
29383;BME280;16365;51.598;7.668;2023-04-21T09:33:45;100732.66;;;19.04;46.11
29383;BME280;16365;51.598;7.668;2023-04-21T09:36:26;100730.28;;;19.06;45.45
29383;BME280;16365;51.598;7.668;2023-04-21T09:38:57;100729.47;;;19.06;45.50
29383;BME280;16365;51.598;7.668;2023-04-21T09:41:27;100732.28;;;19.06;45.74
29383;BME280;16365;51.598;7.668;2023-04-21T09:43:53;100733.91;;;19.07;45.85
29383;BME280;16365;51.598;7.668;2023-04-21T09:46:20;100736.72;;;19.07;45.74
29383;BME280;16365;51.598;7.668;2023-04-21T09:48:47;100738.31;;;19.08;45.81
29383;BME280;16365;51.598;7.668;2023-04-21T09:51:16;100739.53;;;19.07;45.71
29383;BME280;16365;51.598;7.668;2023-04-21T09:53:47;100736.31;;;19.08;45.75
29383;BME280;16365;51.598;7.668;2023-04-21T09:56:20;100732.75;;;19.11;45.90
29383;BME280;16365;51.598;7.668;2023-04-21T09:58:52;100729.94;;;19.11;45.78
29383;BME280;16365;51.598;7.668;2023-04-21T10:01:19;100718.34;;;19.16;45.39
29383;BME280;16365;51.598;7.668;2023-04-21T10:03:51;100719.16;;;19.17;45.88
29383;BME280;16365;51.598;7.668;2023-04-21T10:06:18;100714.78;;;19.23;45.58
29383;BME280;16365;51.598;7.668;2023-04-21T10:08:45;100710.00;;;19.27;45.67
29383;BME280;16365;51.598;7.668;2023-04-21T10:11:14;100710.44;;;19.33;45.71
29383;BME280;16365;51.598;7.668;2023-04-21T10:13:41;100705.28;;;19.38;45.47
29383;BME280;16365;51.598;7.668;2023-04-21T10:16:09;100709.78;;;19.46;45.45
29383;BME280;16365;51.598;7.668;2023-04-21T10:18:45;100707.41;;;19.52;45.16
29383;BME280;16365;51.598;7.668;2023-04-21T10:21:19;100699.41;;;19.58;44.80
29383;BME280;16365;51.598;7.668;2023-04-21T10:23:52;100692.28;;;19.67;44.83
29383;BME280;16365;51.598;7.668;2023-04-21T10:26:24;100686.72;;;19.74;44.75
29383;BME280;16365;51.598;7.668;2023-04-21T10:29:03;100684.34;;;19.80;44.45
29383;BME280;16365;51.598;7.668;2023-04-21T10:31:52;100682.00;;;19.89;44.48
29383;BME280;16365;51.598;7.668;2023-04-21T10:34:28;100678.41;;;19.96;44.16
29383;BME280;16365;51.598;7.668;2023-04-21T10:39:41;100688.53;;;20.08;43.55
29383;BME280;16365;51.598;7.668;2023-04-21T10:47:35;100685.78;;;20.18;42.91
29383;BME280;16365;51.598;7.668;2023-04-21T10:50:16;100688.22;;;20.23;43.21
29383;BME280;16365;51.598;7.668;2023-04-21T10:55:20;100674.19;;;20.34;43.08
29383;BME280;16365;51.598;7.668;2023-04-21T10:57:48;100672.59;;;20.40;43.50
29383;BME280;16365;51.598;7.668;2023-04-21T11:00:19;100659.34;;;20.44;43.53
29383;BME280;16365;51.598;7.668;2023-04-21T11:05:28;100648.16;;;20.55;43.38
29383;BME280;16365;51.598;7.668;2023-04-21T11:08:04;100658.63;;;20.62;43.50
29383;BME280;16365;51.598;7.668;2023-04-21T11:10:47;100656.63;;;20.69;42.74
29383;BME280;16365;51.598;7.668;2023-04-21T11:13:14;100648.59;;;20.78;43.18
29383;BME280;16365;51.598;7.668;2023-04-21T11:16:04;100643.38;;;20.81;42.92
29383;BME280;16365;51.598;7.668;2023-04-21T11:18:35;100645.41;;;20.91;42.60
29383;BME280;16365;51.598;7.668;2023-04-21T11:21:17;100649.06;;;20.95;42.33
29383;BME280;16365;51.598;7.668;2023-04-21T11:23:48;100641.41;;;21.02;43.10
29383;BME280;16365;51.598;7.668;2023-04-21T11:26:16;100634.16;;;21.09;42.87
29383;BME280;16365;51.598;7.668;2023-04-21T11:28:46;100630.94;;;21.14;42.52
29383;BME280;16365;51.598;7.668;2023-04-21T11:31:13;100622.09;;;21.19;42.85
29383;BME280;16365;51.598;7.668;2023-04-21T11:33:39;100614.81;;;21.25;42.81
29383;BME280;16365;51.598;7.668;2023-04-21T11:36:06;100612.44;;;21.30;42.09
29383;BME280;16365;51.598;7.668;2023-04-21T11:38:37;100607.19;;;21.36;41.67
29383;BME280;16365;51.598;7.668;2023-04-21T11:41:05;100606.78;;;21.45;41.58
29383;BME280;16365;51.598;7.668;2023-04-21T11:43:32;100602.34;;;21.51;41.58
29383;BME280;16365;51.598;7.668;2023-04-21T11:46:35;100604.75;;;21.52;40.79
29383;BME280;16365;51.598;7.668;2023-04-21T11:49:14;100604.75;;;21.60;41.36
29383;BME280;16365;51.598;7.668;2023-04-21T11:51:42;100605.13;;;21.65;41.35
29383;BME280;16365;51.598;7.668;2023-04-21T11:54:11;100597.88;;;21.68;41.03
29383;BME280;16365;51.598;7.668;2023-04-21T11:56:41;100597.47;;;21.73;40.91
29383;BME280;16365;51.598;7.668;2023-04-21T11:59:10;100580.50;;;21.80;40.49
29383;BME280;16365;51.598;7.668;2023-04-21T12:01:50;100582.94;;;21.78;39.71
29383;BME280;16365;51.598;7.668;2023-04-21T12:04:19;100574.03;;;21.79;40.22
29383;BME280;16365;51.598;7.668;2023-04-21T12:06:59;100570.03;;;21.77;39.58
29383;BME280;16365;51.598;7.668;2023-04-21T12:09:28;100568.81;;;21.81;40.07
29383;BME280;16365;51.598;7.668;2023-04-21T12:11:56;100568.00;;;21.81;40.09
29383;BME280;16365;51.598;7.668;2023-04-21T12:14:24;100567.59;;;21.83;40.13
29383;BME280;16365;51.598;7.668;2023-04-21T12:16:55;100569.19;;;21.84;40.21
29383;BME280;16365;51.598;7.668;2023-04-21T12:19:35;100564.78;;;21.83;39.67
29383;BME280;16365;51.598;7.668;2023-04-21T12:22:09;100563.56;;;21.87;40.76
29383;BME280;16365;51.598;7.668;2023-04-21T12:24:36;100558.28;;;21.93;40.73
29383;BME280;16365;51.598;7.668;2023-04-21T12:27:03;100553.03;;;21.95;40.34
29383;BME280;16365;51.598;7.668;2023-04-21T12:29:31;100544.97;;;21.97;40.82
29383;BME280;16365;51.598;7.668;2023-04-21T12:32:00;100547.78;;;22.00;40.92
29383;BME280;16365;51.598;7.668;2023-04-21T12:34:27;100550.56;;;22.04;39.84
29383;BME280;16365;51.598;7.668;2023-04-21T12:36:54;100551.78;;;22.06;40.20
29383;BME280;16365;51.598;7.668;2023-04-21T12:39:20;100547.75;;;22.11;40.47
29383;BME280;16365;51.598;7.668;2023-04-21T12:41:47;100546.09;;;22.14;40.21
29383;BME280;16365;51.598;7.668;2023-04-21T12:44:14;100539.22;;;22.18;40.37
29383;BME280;16365;51.598;7.668;2023-04-21T12:46:40;100538.00;;;22.23;39.94
29383;BME280;16365;51.598;7.668;2023-04-21T12:49:07;100537.19;;;22.26;39.78
29383;BME280;16365;51.598;7.668;2023-04-21T12:51:35;100529.06;;;22.31;39.85
29383;BME280;16365;51.598;7.668;2023-04-21T12:54:01;100520.59;;;22.35;39.45
29383;BME280;16365;51.598;7.668;2023-04-21T12:56:28;100520.97;;;22.37;39.30
29383;BME280;16365;51.598;7.668;2023-04-21T12:58:56;100525.00;;;22.40;39.44
29383;BME280;16365;51.598;7.668;2023-04-21T13:01:23;100516.47;;;22.43;39.23
29383;BME280;16365;51.598;7.668;2023-04-21T13:03:50;100514.06;;;22.45;39.14
29383;BME280;16365;51.598;7.668;2023-04-21T13:06:16;100512.84;;;22.46;39.08
29383;BME280;16365;51.598;7.668;2023-04-21T13:08:43;100517.66;;;22.49;38.93